createdAt,value
2017-08-06T08:38:10.966Z,57.41
2017-08-06T08:39:10.946Z,51.79
2017-08-06T08:40:10.931Z,51.22
2017-08-06T08:41:11.940Z,51.21
2017-08-06T08:42:10.971Z,51.28
2017-08-06T08:43:10.976Z,52.33
2017-08-06T08:49:19.966Z,63.45
2017-08-06T08:50:19.964Z,63.44
2017-08-06T08:52:37.842Z,53.76
2017-08-06T08:53:37.868Z,51.38
2017-08-06T08:54:38.609Z,51.04
2017-08-06T08:55:37.764Z,50.78
2017-08-06T08:56:37.845Z,50.56
2017-08-06T08:57:38.612Z,50.39
2017-08-06T08:58:37.893Z,50.32
2017-08-06T08:59:37.965Z,50.21
2017-08-06T09:00:37.818Z,50.21
2017-08-06T09:01:37.919Z,50.25
2017-08-06T09:02:37.876Z,50.32
2017-08-06T09:03:37.914Z,50.20
2017-08-06T09:04:37.904Z,50.32
2017-08-06T09:05:37.845Z,50.63
2017-08-06T09:06:37.846Z,50.65
2017-08-06T09:07:37.943Z,50.50
2017-08-06T09:08:37.854Z,50.23
2017-08-06T09:09:38.785Z,50.36
2017-08-06T09:10:38.635Z,50.28
2017-08-06T09:11:37.797Z,50.40
2017-08-06T09:12:38.636Z,50.49
2017-08-06T09:13:37.850Z,50.39
2017-08-06T09:14:38.645Z,50.17
2017-08-06T09:15:38.678Z,50.08
2017-08-06T09:16:37.852Z,49.99
2017-08-06T09:17:37.791Z,49.90
2017-08-06T09:18:38.730Z,49.84
2017-08-06T09:19:37.821Z,49.92
2017-08-06T09:20:37.844Z,49.77
2017-08-06T09:21:37.883Z,49.62
2017-08-06T09:22:38.301Z,49.44
2017-08-06T09:23:37.819Z,49.42
2017-08-06T09:24:37.891Z,49.40
2017-08-06T09:25:38.998Z,49.26
2017-08-06T09:26:38.659Z,49.14
2017-08-06T09:27:38.663Z,49.05
2017-08-06T09:28:38.664Z,48.90
2017-08-06T09:29:37.884Z,48.51
2017-08-06T09:30:37.884Z,48.38
2017-08-06T09:31:37.873Z,48.35
2017-08-06T09:32:37.887Z,48.33
2017-08-06T09:33:39.175Z,48.32
2017-08-06T09:34:37.829Z,48.32
2017-08-06T09:35:37.818Z,48.31
2017-08-06T09:36:37.809Z,48.25
2017-08-06T09:37:37.864Z,48.23
2017-08-06T09:38:37.858Z,48.08
2017-08-06T09:39:38.693Z,48.08
2017-08-06T09:40:37.857Z,47.93
2017-08-06T09:41:37.852Z,48.12
2017-08-06T09:42:37.830Z,47.98
2017-08-06T09:43:37.938Z,47.87
2017-08-06T09:44:37.855Z,47.58
2017-08-06T09:45:37.869Z,47.56
2017-08-06T09:46:37.938Z,47.64
2017-08-06T09:47:39.708Z,47.31
2017-08-06T09:48:38.708Z,46.63
2017-08-06T09:49:37.836Z,47.12
2017-08-06T09:50:37.878Z,45.70
2017-08-06T09:51:39.729Z,47.15
2017-08-06T09:52:37.873Z,45.88
2017-08-06T09:53:37.806Z,44.69
2017-08-06T09:54:37.998Z,44.65
2017-08-06T09:55:39.714Z,44.61
2017-08-06T09:56:37.860Z,46.40
2017-08-06T09:57:38.737Z,46.03
2017-08-06T09:58:37.901Z,46.43
2017-08-06T09:59:37.905Z,46.77
2017-08-06T10:00:37.856Z,46.38
2017-08-06T10:01:38.796Z,45.97
2017-08-06T10:02:37.802Z,44.95
2017-08-06T10:03:37.886Z,45.61
2017-08-06T10:04:38.722Z,44.73
2017-08-06T10:05:37.884Z,44.31
2017-08-06T10:06:37.842Z,43.74
2017-08-06T10:07:38.245Z,43.38
2017-08-06T10:08:38.728Z,43.35
2017-08-06T10:09:38.235Z,42.95
2017-08-06T10:10:37.939Z,42.43
2017-08-06T10:11:38.243Z,42.45
2017-08-06T10:12:37.849Z,42.35
2017-08-06T10:13:37.858Z,42.30
2017-08-06T10:14:38.277Z,41.96
2017-08-06T10:15:37.919Z,41.80
2017-08-06T10:16:38.251Z,41.46
2017-08-06T10:17:37.760Z,41.55
2017-08-06T10:18:38.745Z,41.95
2017-08-06T10:19:37.846Z,42.15
2017-08-06T10:20:37.787Z,41.81
2017-08-06T10:21:37.843Z,41.76
2017-08-06T10:22:37.844Z,41.81
2017-08-06T10:23:39.253Z,42.03
2017-08-06T10:24:37.876Z,41.84
2017-08-06T10:25:37.811Z,41.92
2017-08-06T10:26:37.842Z,42.13
2017-08-06T10:27:37.797Z,42.41
2017-08-06T10:28:38.266Z,44.02
2017-08-06T10:29:38.265Z,45.16
2017-08-06T10:30:37.836Z,43.91
2017-08-06T10:31:37.864Z,45.11
2017-08-06T10:32:38.290Z,45.02
2017-08-06T10:33:37.810Z,44.09
2017-08-06T10:34:38.314Z,43.95
2017-08-06T10:35:37.791Z,43.48
2017-08-06T10:36:37.750Z,43.10
2017-08-06T10:37:37.766Z,43.57
2017-08-06T10:38:37.842Z,45.76
2017-08-06T10:39:37.824Z,45.08
2017-08-06T10:40:38.781Z,43.96
2017-08-06T10:41:37.973Z,43.52
2017-08-06T10:42:37.821Z,43.77
2017-08-06T10:43:37.791Z,43.27
2017-08-06T10:44:37.811Z,43.42
2017-08-06T10:45:38.290Z,43.22
2017-08-06T10:46:37.819Z,43.12
2017-08-06T10:47:37.841Z,43.09
2017-08-06T10:48:37.886Z,42.96
2017-08-06T10:49:37.825Z,42.99
2017-08-06T10:50:38.311Z,42.92
2017-08-06T10:51:38.313Z,43.50
2017-08-06T10:52:37.749Z,42.80
2017-08-06T10:53:37.862Z,42.73
2017-08-06T10:54:37.787Z,42.54
2017-08-06T10:55:37.828Z,42.44
2017-08-06T10:56:37.916Z,42.47
2017-08-06T10:57:38.067Z,42.48
2017-08-06T10:58:38.342Z,42.19
2017-08-06T10:59:37.784Z,42.16
2017-08-06T11:00:37.994Z,42.24
2017-08-06T11:01:38.816Z,42.15
2017-08-06T11:02:37.794Z,42.26
2017-08-06T11:03:37.802Z,42.21
2017-08-06T11:04:37.911Z,42.18
2017-08-06T11:05:37.856Z,42.33
2017-08-06T11:06:37.938Z,42.25
2017-08-06T11:07:37.746Z,42.21
2017-08-06T11:08:37.791Z,42.24
2017-08-06T11:09:38.332Z,42.42
2017-08-06T11:10:37.863Z,42.06
2017-08-06T11:11:38.350Z,42.23
2017-08-06T11:12:37.778Z,42.17
2017-08-06T11:13:37.720Z,42.36
2017-08-06T11:14:37.917Z,42.07
2017-08-06T11:15:38.339Z,41.54
2017-08-06T11:16:37.841Z,41.47
2017-08-06T11:17:38.373Z,41.42
2017-08-06T11:18:37.727Z,41.44
2017-08-06T11:19:37.744Z,41.83
2017-08-06T11:20:37.870Z,41.89
2017-08-06T11:21:37.926Z,41.94
2017-08-06T11:22:37.730Z,41.91
2017-08-06T11:23:37.824Z,41.99
2017-08-06T11:24:37.844Z,42.35
2017-08-06T11:25:38.356Z,42.29
2017-08-06T11:26:38.378Z,41.92
2017-08-06T11:27:38.872Z,41.75
2017-08-06T11:28:38.860Z,42.14
2017-08-06T11:29:37.777Z,41.44
2017-08-06T11:30:37.841Z,41.81
2017-08-06T11:31:39.365Z,41.90
2017-08-06T11:32:37.953Z,41.78
2017-08-06T11:33:37.764Z,41.47
2017-08-06T11:34:37.861Z,41.70
2017-08-06T11:35:38.874Z,41.69
2017-08-06T11:36:37.902Z,41.61
2017-08-06T11:37:37.872Z,41.54
2017-08-06T11:38:37.857Z,41.39
2017-08-06T11:39:37.862Z,41.42
2017-08-06T11:40:38.383Z,41.32
2017-08-06T11:41:37.782Z,41.45
2017-08-06T11:42:37.722Z,41.48
2017-08-06T11:43:37.815Z,41.45
2017-08-06T11:44:37.898Z,41.66
2017-08-06T11:45:37.780Z,41.81
2017-08-06T11:46:37.759Z,41.67
2017-08-06T11:47:37.904Z,41.81
2017-08-06T11:48:37.762Z,41.84
2017-08-06T11:49:37.840Z,41.89
2017-08-06T11:50:37.843Z,41.91
2017-08-06T11:51:37.812Z,42.00
2017-08-06T11:52:38.426Z,42.11
2017-08-06T11:53:38.403Z,42.26
2017-08-06T11:54:37.797Z,42.12
2017-08-06T11:55:38.524Z,42.16
2017-08-06T11:56:37.819Z,42.34
2017-08-06T11:57:37.714Z,42.31
2017-08-06T11:58:38.410Z,42.41
2017-08-06T11:59:38.418Z,42.43
2017-08-06T12:00:37.743Z,42.46
2017-08-06T12:01:37.823Z,42.54
2017-08-06T12:02:37.771Z,42.62
2017-08-06T12:03:38.537Z,42.69
2017-08-06T12:04:38.424Z,42.67
2017-08-06T12:05:38.426Z,42.68
2017-08-06T12:06:37.812Z,42.71
2017-08-06T12:07:37.717Z,42.70
2017-08-06T12:08:37.821Z,42.87
2017-08-06T12:09:37.734Z,42.91
2017-08-06T12:10:37.799Z,42.87
2017-08-06T12:11:37.824Z,42.95
2017-08-06T12:12:37.712Z,42.90
2017-08-06T12:13:37.842Z,42.96
2017-08-06T12:14:38.507Z,43.00
2017-08-06T12:15:39.945Z,43.02
2017-08-06T12:16:38.122Z,43.03
2017-08-06T12:17:37.802Z,43.03
2017-08-06T12:18:38.505Z,43.01
2017-08-06T12:19:37.796Z,43.04
2017-08-06T12:20:37.789Z,43.03
2017-08-06T12:21:38.095Z,43.01
2017-08-06T12:22:38.452Z,43.06
2017-08-06T12:23:38.452Z,43.12
2017-08-06T12:24:38.459Z,43.23
2017-08-06T12:25:37.716Z,43.16
2017-08-06T12:26:38.497Z,43.20
2017-08-06T12:27:37.722Z,43.05
2017-08-06T12:28:37.772Z,43.11
2017-08-06T12:29:37.830Z,43.01
2017-08-06T12:30:37.748Z,42.95
2017-08-06T12:31:38.167Z,42.83
2017-08-06T12:32:38.492Z,42.50
2017-08-06T12:33:38.468Z,42.53
2017-08-06T12:34:37.911Z,42.43
2017-08-06T12:35:38.616Z,42.31
2017-08-06T12:36:38.480Z,42.05
2017-08-06T12:37:37.803Z,42.08
2017-08-06T12:38:37.785Z,41.97
2017-08-06T12:39:37.798Z,41.86
2017-08-06T12:40:37.745Z,41.88
2017-08-06T12:41:37.862Z,42.27
2017-08-06T12:42:37.760Z,41.98
2017-08-06T12:43:37.897Z,41.91
2017-08-06T12:44:37.748Z,41.90
2017-08-06T12:45:37.848Z,41.99
2017-08-06T12:46:38.491Z,42.05
2017-08-06T12:47:37.695Z,41.94
2017-08-06T12:48:37.737Z,42.46
2017-08-06T12:49:37.854Z,41.64
2017-08-06T12:50:37.744Z,41.85
2017-08-06T12:51:37.728Z,41.14
2017-08-06T12:52:38.500Z,40.94
2017-08-06T12:53:39.070Z,41.56
2017-08-06T12:54:38.511Z,41.46
2017-08-06T12:55:37.772Z,41.19
2017-08-06T12:56:37.779Z,41.20
2017-08-06T12:57:37.739Z,41.27
2017-08-06T12:58:37.787Z,41.37
2017-08-06T12:59:39.514Z,41.51
2017-08-06T13:00:38.514Z,41.63
2017-08-06T13:01:37.729Z,41.70
2017-08-06T13:02:37.821Z,41.58
2017-08-06T13:03:37.755Z,41.75
2017-08-06T13:04:37.782Z,41.90
2017-08-06T13:05:37.761Z,41.90
2017-08-06T13:06:37.785Z,42.36
2017-08-06T13:07:37.760Z,42.17
2017-08-06T13:08:37.739Z,41.92
2017-08-06T13:09:37.782Z,41.81
2017-08-06T13:10:38.568Z,41.91
2017-08-06T13:11:39.032Z,41.17
2017-08-06T13:12:37.749Z,41.04
2017-08-06T13:13:38.541Z,41.11
2017-08-06T13:14:38.537Z,41.00
2017-08-06T13:15:37.795Z,41.03
2017-08-06T13:16:39.039Z,41.08
2017-08-06T13:17:37.823Z,41.10
2017-08-06T13:18:37.747Z,41.04
2017-08-06T13:19:37.828Z,40.49
2017-08-06T13:20:37.700Z,40.58
2017-08-06T13:21:37.742Z,40.50
2017-08-06T13:22:37.770Z,40.30
2017-08-06T13:23:39.593Z,40.04
2017-08-06T13:24:37.826Z,40.12
2017-08-06T13:25:37.713Z,40.43
2017-08-06T13:26:38.557Z,40.58
2017-08-06T13:27:37.735Z,40.72
2017-08-06T13:28:37.701Z,40.86
2017-08-06T13:29:37.747Z,40.89
2017-08-06T13:30:37.730Z,40.76
2017-08-06T13:31:37.763Z,40.88
2017-08-06T13:32:37.762Z,40.90
2017-08-06T13:33:39.571Z,40.85
2017-08-06T13:34:37.807Z,40.76
2017-08-06T13:35:38.575Z,40.95
2017-08-06T13:36:37.909Z,41.17
2017-08-06T13:37:39.605Z,41.55
2017-08-06T13:38:37.793Z,40.68
2017-08-06T13:39:37.705Z,40.42
2017-08-06T13:40:37.855Z,40.21
2017-08-06T13:41:37.836Z,40.39
2017-08-06T13:42:37.790Z,40.26
2017-08-06T13:43:37.811Z,39.73
2017-08-06T13:44:37.720Z,39.37
2017-08-06T13:45:37.756Z,39.24
2017-08-06T13:46:38.662Z,39.11
2017-08-06T13:47:39.592Z,38.99
2017-08-06T13:48:37.790Z,38.99
2017-08-06T13:49:37.742Z,39.13
2017-08-06T13:50:37.751Z,39.23
2017-08-06T13:51:37.756Z,39.38
2017-08-06T13:52:37.744Z,39.26
2017-08-06T13:53:37.897Z,39.05
2017-08-06T13:54:37.689Z,39.00
2017-08-06T13:55:38.607Z,39.01
2017-08-06T13:56:38.612Z,39.16
2017-08-06T13:57:37.711Z,39.19
2017-08-06T13:58:37.749Z,39.48
2017-08-06T13:59:39.133Z,39.51
2017-08-06T14:00:38.611Z,39.33
2017-08-06T14:01:38.114Z,39.42
2017-08-06T14:02:37.734Z,39.17
2017-08-06T14:03:37.805Z,38.43
2017-08-06T14:04:38.634Z,38.53
2017-08-06T14:05:38.622Z,38.68
2017-08-06T14:06:37.700Z,38.61
2017-08-06T14:07:37.735Z,38.59
2017-08-06T14:08:37.680Z,38.66
2017-08-06T14:09:37.736Z,38.54
2017-08-06T14:10:37.717Z,38.57
2017-08-06T14:11:37.682Z,38.51
2017-08-06T14:12:38.134Z,38.66
2017-08-06T14:13:37.660Z,38.76
2017-08-06T14:14:37.749Z,38.85
2017-08-06T14:15:37.725Z,38.31
2017-08-06T14:16:37.797Z,38.10
2017-08-06T14:17:38.157Z,38.09
2017-08-06T14:18:37.728Z,38.16
2017-08-06T14:19:37.888Z,38.01
2017-08-06T14:20:37.677Z,38.08
2017-08-06T14:21:37.761Z,38.16
2017-08-06T14:22:37.792Z,37.99
2017-08-06T14:23:38.152Z,38.06
2017-08-06T14:24:37.748Z,37.93
2017-08-06T14:25:38.154Z,37.59
2017-08-06T14:26:37.800Z,37.27
2017-08-06T14:27:38.158Z,37.01
2017-08-06T14:28:37.705Z,37.00
2017-08-06T14:29:38.067Z,36.80
2017-08-06T14:30:38.166Z,36.58
2017-08-06T14:31:37.752Z,36.78
2017-08-06T14:32:37.718Z,36.98
2017-08-06T14:33:37.751Z,37.25
2017-08-06T14:34:37.757Z,37.07
2017-08-06T14:35:37.752Z,36.91
2017-08-06T14:36:38.378Z,36.91
2017-08-06T14:37:37.886Z,36.86
2017-08-06T14:38:38.176Z,36.86
2017-08-06T14:39:38.182Z,36.97
2017-08-06T14:40:37.714Z,36.94
2017-08-06T14:41:37.845Z,36.98
2017-08-06T14:42:37.666Z,37.12
2017-08-06T14:43:37.722Z,36.51
2017-08-06T14:44:37.755Z,36.92
2017-08-06T14:45:38.187Z,36.81
2017-08-06T14:46:37.761Z,36.88
2017-08-06T14:47:37.662Z,36.76
2017-08-06T14:48:38.192Z,36.55
2017-08-06T14:49:37.697Z,36.77
2017-08-06T14:50:37.660Z,36.62
2017-08-06T14:51:38.224Z,36.66
2017-08-06T14:52:37.784Z,36.81
2017-08-06T14:53:38.382Z,36.80
2017-08-06T14:54:37.921Z,36.70
2017-08-06T14:55:37.745Z,36.69
2017-08-06T14:56:38.224Z,36.52
2017-08-06T14:57:37.717Z,36.57
2017-08-06T14:58:37.672Z,36.69
2017-08-06T14:59:37.853Z,36.21
2017-08-06T15:00:37.754Z,36.60
2017-08-06T15:01:37.659Z,36.50
2017-08-06T15:02:37.664Z,36.58
2017-08-06T15:03:37.656Z,36.61
2017-08-06T15:04:37.702Z,36.75
2017-08-06T15:05:38.261Z,36.54
2017-08-06T15:06:37.749Z,36.54
2017-08-06T15:07:37.705Z,36.56
2017-08-06T15:08:37.704Z,36.63
2017-08-06T15:09:37.678Z,36.59
2017-08-06T15:10:37.714Z,36.64
2017-08-06T15:11:38.254Z,36.61
2017-08-06T15:12:38.231Z,36.78
2017-08-06T15:13:38.734Z,36.56
2017-08-06T15:14:37.622Z,36.62
2017-08-06T15:15:37.720Z,36.49
2017-08-06T15:16:38.238Z,36.40
2017-08-06T15:17:37.789Z,36.54
2017-08-06T15:18:38.245Z,36.36
2017-08-06T15:19:37.603Z,36.26
2017-08-06T15:20:37.628Z,36.33
2017-08-06T15:21:38.254Z,36.44
2017-08-06T15:22:37.756Z,36.11
2017-08-06T15:23:37.727Z,35.93
2017-08-06T15:24:38.751Z,35.39
2017-08-06T15:25:38.753Z,34.96
2017-08-06T15:26:37.701Z,34.90
2017-08-06T15:27:37.716Z,34.07
2017-08-06T15:28:39.260Z,33.74
2017-08-06T15:29:38.293Z,33.30
2017-08-06T15:30:37.685Z,33.36
2017-08-06T15:31:38.266Z,33.53
2017-08-06T15:32:37.638Z,31.95
2017-08-06T15:33:37.781Z,30.52
2017-08-06T15:34:37.711Z,30.29
2017-08-06T15:35:37.745Z,29.73
2017-08-06T15:36:38.278Z,28.68
2017-08-06T15:37:37.659Z,28.95
2017-08-06T15:38:38.279Z,28.61
2017-08-06T15:39:38.277Z,27.93
2017-08-06T15:40:37.680Z,27.53
2017-08-06T15:41:37.781Z,27.85
2017-08-06T15:42:37.717Z,27.91
2017-08-06T15:43:37.684Z,27.88
2017-08-06T15:44:37.707Z,27.55
2017-08-06T15:45:37.688Z,27.24
2017-08-06T15:46:38.289Z,27.39
2017-08-06T15:47:38.293Z,27.19
2017-08-06T15:48:37.817Z,26.83
2017-08-06T15:49:37.695Z,26.60
2017-08-06T15:50:37.672Z,26.64
2017-08-06T15:51:38.004Z,26.60
2017-08-06T15:52:37.675Z,26.30
2017-08-06T15:53:37.680Z,26.52
2017-08-06T15:54:38.303Z,26.55
2017-08-06T15:55:37.619Z,26.54
2017-08-06T15:56:38.777Z,26.43
2017-08-06T15:57:37.593Z,26.44
2017-08-06T15:58:38.322Z,26.40
2017-08-06T15:59:38.312Z,26.40
2017-08-06T16:00:37.755Z,26.45
2017-08-06T16:01:37.671Z,26.26
2017-08-06T16:02:37.691Z,26.26
2017-08-06T16:03:38.339Z,26.28
2017-08-06T16:04:38.332Z,26.45
2017-08-06T16:05:39.332Z,26.30
2017-08-06T16:06:37.693Z,26.43
2017-08-06T16:07:38.336Z,26.41
2017-08-06T16:08:37.890Z,26.23
2017-08-06T16:09:37.660Z,26.10
2017-08-06T16:10:38.335Z,26.21
2017-08-06T16:11:37.669Z,26.11
2017-08-06T16:12:37.717Z,26.13
2017-08-06T16:13:38.336Z,26.65
2017-08-06T16:14:38.357Z,26.38
2017-08-06T16:15:37.681Z,26.42
2017-08-06T16:16:37.690Z,26.44
2017-08-06T16:17:37.981Z,26.33
2017-08-06T16:18:37.681Z,26.36
2017-08-06T16:19:38.373Z,26.66
2017-08-06T16:20:38.349Z,26.57
2017-08-06T16:21:37.751Z,27.18
2017-08-06T16:22:38.358Z,27.80
2017-08-06T16:23:37.779Z,28.11
2017-08-06T16:24:37.644Z,29.23
2017-08-06T16:25:37.678Z,29.91
2017-08-06T16:26:38.359Z,30.53
2017-08-06T16:27:38.362Z,31.02
2017-08-06T16:28:37.630Z,31.25
2017-08-06T16:29:38.373Z,31.57
2017-08-06T16:30:37.694Z,31.70
2017-08-06T16:31:37.757Z,31.42
2017-08-06T16:32:37.656Z,31.46
2017-08-06T16:33:37.691Z,31.71
2017-08-06T16:34:37.765Z,32.21
2017-08-06T16:35:38.375Z,32.53
2017-08-06T16:36:37.657Z,32.56
2017-08-06T16:37:37.744Z,33.18
2017-08-06T16:38:38.379Z,33.14
2017-08-06T16:39:38.383Z,33.47
2017-08-06T16:40:37.637Z,33.91
2017-08-06T16:41:37.706Z,33.75
2017-08-06T16:42:37.641Z,33.63
2017-08-06T16:43:38.391Z,34.03
2017-08-06T16:44:37.713Z,33.96
2017-08-06T16:45:38.543Z,34.23
2017-08-06T16:46:37.759Z,34.47
2017-08-06T16:47:38.395Z,34.28
2017-08-06T16:48:37.678Z,34.64
2017-08-06T16:49:37.749Z,34.34
2017-08-06T16:50:39.403Z,34.64
2017-08-06T16:51:37.647Z,34.84
2017-08-06T16:52:37.652Z,34.64
2017-08-06T16:53:38.412Z,34.62
2017-08-06T16:54:38.406Z,34.45
2017-08-06T16:55:37.721Z,34.77
2017-08-06T16:56:38.417Z,34.93
2017-08-06T16:57:37.615Z,35.05
2017-08-06T16:58:37.672Z,35.35
2017-08-06T16:59:37.693Z,35.22
2017-08-06T17:00:38.509Z,35.66
2017-08-06T17:01:37.583Z,35.43
2017-08-06T17:02:37.640Z,35.57
2017-08-06T17:03:37.660Z,35.36
2017-08-06T17:04:38.548Z,35.82
2017-08-06T17:05:38.549Z,35.92
2017-08-06T17:06:37.683Z,35.79
2017-08-06T17:07:37.629Z,35.79
2017-08-06T17:08:37.742Z,35.90
2017-08-06T17:09:37.594Z,35.80
2017-08-06T17:10:37.618Z,36.20
2017-08-06T17:11:38.435Z,36.05
2017-08-06T17:12:37.660Z,36.12
2017-08-06T17:13:37.733Z,36.22
2017-08-06T17:14:37.652Z,36.13
2017-08-06T17:15:37.688Z,36.47
2017-08-06T17:16:39.443Z,36.44
2017-08-06T17:17:37.624Z,36.26
2017-08-06T17:18:37.671Z,36.81
2017-08-06T17:19:38.452Z,36.60
2017-08-06T17:20:38.455Z,36.63
2017-08-06T17:21:37.579Z,36.44
2017-08-06T17:22:37.620Z,36.58
2017-08-06T17:23:37.630Z,36.48
2017-08-06T17:24:38.459Z,36.51
2017-08-06T17:25:37.603Z,36.66
2017-08-06T17:26:37.732Z,36.78
2017-08-06T17:27:37.651Z,36.80
2017-08-06T17:28:38.465Z,36.64
2017-08-06T17:29:37.634Z,36.85
2017-08-06T17:30:39.485Z,36.65
2017-08-06T17:31:38.983Z,36.86
2017-08-06T17:32:37.635Z,36.92
2017-08-06T17:33:37.752Z,36.86
2017-08-06T17:34:37.635Z,36.99
2017-08-06T17:35:37.648Z,37.03
2017-08-06T17:36:37.622Z,37.21
2017-08-06T17:37:37.632Z,37.03
2017-08-06T17:38:37.698Z,37.22
2017-08-06T17:39:37.663Z,37.01
2017-08-06T17:40:37.727Z,37.27
2017-08-06T17:41:37.740Z,37.19
2017-08-06T17:42:37.654Z,37.24
2017-08-06T17:43:38.523Z,37.22
2017-08-06T17:44:37.723Z,37.16
2017-08-06T17:45:37.640Z,36.97
2017-08-06T17:46:37.723Z,37.12
2017-08-06T17:47:37.567Z,37.26
2017-08-06T17:48:37.730Z,37.18
2017-08-06T17:49:40.517Z,37.17
2017-08-06T17:50:37.652Z,37.01
2017-08-06T17:51:37.600Z,37.08
2017-08-06T17:52:37.622Z,37.29
2017-08-06T17:53:37.651Z,37.13
2017-08-06T17:54:37.654Z,37.21
2017-08-06T17:55:37.718Z,37.25
2017-08-06T17:56:38.512Z,37.24
2017-08-06T17:57:37.650Z,37.20
2017-08-06T17:58:37.615Z,37.34
2017-08-06T17:59:37.666Z,37.33
2017-08-06T18:00:37.664Z,37.31
2017-08-06T18:01:38.520Z,37.37
2017-08-06T18:02:38.025Z,37.57
2017-08-06T18:03:37.683Z,37.38
2017-08-06T18:04:37.706Z,37.63
2017-08-06T18:05:37.619Z,37.59
2017-08-06T18:06:37.649Z,37.52
2017-08-06T18:07:38.030Z,37.65
2017-08-06T18:08:37.619Z,37.64
2017-08-06T18:09:37.594Z,37.80
2017-08-06T18:10:37.563Z,37.83
2017-08-06T18:11:38.036Z,38.16
2017-08-06T18:12:37.592Z,38.93
2017-08-06T18:13:37.613Z,39.19
2017-08-06T18:14:38.042Z,39.50
2017-08-06T18:15:37.598Z,39.88
2017-08-06T18:16:37.544Z,40.00
2017-08-06T18:17:37.677Z,40.65
2017-08-06T18:18:37.622Z,40.82
2017-08-06T18:19:37.725Z,41.11
2017-08-06T18:20:37.571Z,41.34
2017-08-06T18:21:37.619Z,41.42
2017-08-06T18:22:37.578Z,41.53
2017-08-06T18:23:37.651Z,41.65
2017-08-06T18:24:38.060Z,41.74
2017-08-06T18:25:38.071Z,41.79
2017-08-06T18:26:38.062Z,41.74
2017-08-06T18:27:37.646Z,41.92
2017-08-06T18:28:38.069Z,41.97
2017-08-06T18:29:37.626Z,42.04
2017-08-06T18:30:38.233Z,42.03
2017-08-06T18:31:37.813Z,42.05
2017-08-06T18:32:37.656Z,42.00
2017-08-06T18:33:38.073Z,42.07
2017-08-06T18:34:37.745Z,42.13
2017-08-06T18:35:37.644Z,42.16
2017-08-06T18:36:37.622Z,42.18
2017-08-06T18:37:37.539Z,42.26
2017-08-06T18:38:37.594Z,42.29
2017-08-06T18:39:38.084Z,42.26
2017-08-06T18:40:38.085Z,42.36
2017-08-06T18:41:37.580Z,42.32
2017-08-06T18:42:37.724Z,42.29
2017-08-06T18:43:37.663Z,42.28
2017-08-06T18:44:37.639Z,42.26
2017-08-06T18:45:37.637Z,42.25
2017-08-06T18:46:38.104Z,42.23
2017-08-06T18:47:37.580Z,42.24
2017-08-06T18:48:37.698Z,42.17
2017-08-06T18:49:38.104Z,42.15
2017-08-06T18:50:37.681Z,42.10
2017-08-06T18:51:38.109Z,42.03
2017-08-06T18:52:38.105Z,42.10
2017-08-06T18:53:37.633Z,42.05
2017-08-06T18:54:37.622Z,42.02
2017-08-06T18:55:37.658Z,41.98
2017-08-06T18:56:37.587Z,41.98
2017-08-06T18:57:37.605Z,42.20
2017-08-06T18:58:37.595Z,42.20
2017-08-06T18:59:38.117Z,42.19
2017-08-06T19:00:38.119Z,41.97
2017-08-06T19:01:38.125Z,41.48
2017-08-06T19:02:38.124Z,41.20
2017-08-06T19:03:38.135Z,40.77
2017-08-06T19:04:38.125Z,40.66
2017-08-06T19:05:37.780Z,40.36
2017-08-06T19:06:37.601Z,40.29
2017-08-06T19:07:38.131Z,40.03
2017-08-06T19:08:38.656Z,39.97
2017-08-06T19:09:37.747Z,39.92
2017-08-06T19:10:37.673Z,39.77
2017-08-06T19:11:37.636Z,39.73
2017-08-06T19:12:37.594Z,39.63
2017-08-06T19:13:37.509Z,39.65
2017-08-06T19:14:39.142Z,39.71
2017-08-06T19:15:37.609Z,39.66
2017-08-06T19:16:38.323Z,39.62
2017-08-06T19:17:38.149Z,39.48
2017-08-06T19:18:37.753Z,39.53
2017-08-06T19:19:38.156Z,39.50
2017-08-06T19:20:37.614Z,39.53
2017-08-06T19:21:38.154Z,39.45
2017-08-06T19:22:37.594Z,39.40
2017-08-06T19:23:37.595Z,39.42
2017-08-06T19:24:37.623Z,39.40
2017-08-06T19:25:37.560Z,39.38
2017-08-06T19:26:37.649Z,39.40
2017-08-06T19:27:38.167Z,39.48
2017-08-06T19:28:37.601Z,39.54
2017-08-06T19:29:38.689Z,39.57
2017-08-06T19:30:38.182Z,39.57
2017-08-06T19:31:37.701Z,39.64
2017-08-06T19:32:37.636Z,39.69
2017-08-06T19:33:37.553Z,39.74
2017-08-06T19:34:38.213Z,39.78
2017-08-06T19:35:37.575Z,39.79
2017-08-06T19:36:37.685Z,39.81
2017-08-06T19:37:37.523Z,39.88
2017-08-06T19:38:37.568Z,39.88
2017-08-06T19:39:37.660Z,39.84
2017-08-06T19:40:37.616Z,39.87
2017-08-06T19:41:37.643Z,39.87
2017-08-06T19:42:38.189Z,39.94
2017-08-06T19:43:37.776Z,40.03
2017-08-06T19:44:39.218Z,40.08
2017-08-06T19:45:37.695Z,40.21
2017-08-06T19:46:37.624Z,40.11
2017-08-06T19:47:38.610Z,40.10
2017-08-06T19:48:37.673Z,40.10
2017-08-06T19:49:37.642Z,40.12
2017-08-06T19:50:37.538Z,40.18
2017-08-06T19:51:38.212Z,40.12
2017-08-06T19:52:37.686Z,40.37
2017-08-06T19:53:38.211Z,40.16
2017-08-06T19:54:38.212Z,40.36
2017-08-06T19:55:37.670Z,40.25
2017-08-06T19:56:37.577Z,40.40
2017-08-06T19:57:37.640Z,40.44
2017-08-06T19:58:37.732Z,40.63
2017-08-06T19:59:37.639Z,40.64
2017-08-06T20:00:38.305Z,40.71
2017-08-06T20:01:38.220Z,40.41
2017-08-06T20:02:37.559Z,40.69
2017-08-06T20:03:37.568Z,40.71
2017-08-06T20:04:38.226Z,40.62
2017-08-06T20:05:37.603Z,40.76
2017-08-06T20:06:37.599Z,40.71
2017-08-06T20:07:37.637Z,40.74
2017-08-06T20:08:37.532Z,40.62
2017-08-06T20:09:37.595Z,40.65
2017-08-06T20:10:37.620Z,40.79
2017-08-06T20:11:37.522Z,40.60
2017-08-06T20:12:37.531Z,40.72
2017-08-06T20:13:37.559Z,40.79
2017-08-06T20:14:37.766Z,40.90
2017-08-06T20:15:37.725Z,41.03
2017-08-06T20:16:37.585Z,40.85
2017-08-06T20:17:37.661Z,40.89
2017-08-06T20:18:37.551Z,40.85
2017-08-06T20:19:37.584Z,40.93
2017-08-06T20:20:37.574Z,40.89
2017-08-06T20:21:37.491Z,40.96
2017-08-06T20:22:37.539Z,41.04
2017-08-06T20:23:38.264Z,41.01
2017-08-06T20:24:37.607Z,41.10
2017-08-06T20:25:38.260Z,41.15
2017-08-06T20:26:37.561Z,41.11
2017-08-06T20:27:38.274Z,41.13
2017-08-06T20:28:37.598Z,41.20
2017-08-06T20:29:37.571Z,41.29
2017-08-06T20:30:38.269Z,41.28
2017-08-06T20:31:37.526Z,41.27
2017-08-06T20:32:37.572Z,41.31
2017-08-06T20:33:37.639Z,41.39
2017-08-06T20:34:38.276Z,41.41
2017-08-06T20:35:37.621Z,41.39
2017-08-06T20:36:37.585Z,41.33
2017-08-06T20:37:37.546Z,41.33
2017-08-06T20:38:38.286Z,41.40
2017-08-06T20:39:37.534Z,41.29
2017-08-06T20:40:37.634Z,41.35
2017-08-06T20:41:38.286Z,41.34
2017-08-06T20:42:37.616Z,41.26
2017-08-06T20:43:37.603Z,41.27
2017-08-06T20:44:37.704Z,41.27
2017-08-06T20:45:37.621Z,41.28
2017-08-06T20:46:37.690Z,41.38
2017-08-06T20:47:37.534Z,41.45
2017-08-06T20:48:37.603Z,41.43
2017-08-06T20:49:37.610Z,41.36
2017-08-06T20:50:38.311Z,41.45
2017-08-06T20:51:37.543Z,41.46
2017-08-06T20:52:37.550Z,41.46
2017-08-06T20:53:37.574Z,41.52
2017-08-06T20:54:37.556Z,41.56
2017-08-06T20:55:38.309Z,41.56
2017-08-06T20:56:37.573Z,41.63
2017-08-06T20:57:39.317Z,41.56
2017-08-06T20:58:37.569Z,41.49
2017-08-06T20:59:37.533Z,41.56
2017-08-06T21:00:37.547Z,41.46
2017-08-06T21:01:37.551Z,41.33
2017-08-06T21:02:37.697Z,41.43
2017-08-06T21:03:37.572Z,41.50
2017-08-06T21:04:37.539Z,41.45
2017-08-06T21:05:37.483Z,41.57
2017-08-06T21:06:37.565Z,41.45
2017-08-06T21:07:37.581Z,41.51
2017-08-06T21:08:38.041Z,41.41
2017-08-06T21:09:37.562Z,41.50
2017-08-06T21:10:37.546Z,41.51
2017-08-06T21:11:38.336Z,41.51
2017-08-06T21:12:38.338Z,41.39
2017-08-06T21:13:38.345Z,41.45
2017-08-06T21:14:37.572Z,41.54
2017-08-06T21:15:38.344Z,41.55
2017-08-06T21:16:37.541Z,41.56
2017-08-06T21:17:37.492Z,41.62
2017-08-06T21:18:37.518Z,41.60
2017-08-06T21:19:38.052Z,41.63
2017-08-06T21:20:37.507Z,41.61
2017-08-06T21:21:38.356Z,41.74
2017-08-06T21:22:37.556Z,41.66
2017-08-06T21:23:37.568Z,41.72
2017-08-06T21:24:37.550Z,41.64
2017-08-06T21:25:39.398Z,41.72
2017-08-06T21:26:37.496Z,41.61
2017-08-06T21:27:37.472Z,41.64
2017-08-06T21:28:38.363Z,41.59
2017-08-06T21:29:37.665Z,41.66
2017-08-06T21:30:37.604Z,41.66
2017-08-06T21:31:37.580Z,41.61
2017-08-06T21:32:38.527Z,41.69
2017-08-06T21:33:38.372Z,41.64
2017-08-06T21:34:37.608Z,41.65
2017-08-06T21:35:37.505Z,41.68
2017-08-06T21:36:38.380Z,41.63